sensor_id;sensor_type;location;lat;lon;timestamp;P1;durP1;ratioP1;P2;durP2;ratioP2
43150;SDS011;28755;51.478;5.702;2022-12-28T00:01:22;9.07;;;3.30;;
43150;SDS011;28755;51.478;5.702;2022-12-28T00:03:50;5.65;;;2.85;;
43150;SDS011;28755;51.478;5.702;2022-12-28T00:06:17;8.30;;;3.10;;
43150;SDS011;28755;51.478;5.702;2022-12-28T00:08:44;11.18;;;3.25;;
43150;SDS011;28755;51.478;5.702;2022-12-28T00:11:16;6.70;;;2.80;;
43150;SDS011;28755;51.478;5.702;2022-12-28T00:13:43;9.50;;;2.95;;
43150;SDS011;28755;51.478;5.702;2022-12-28T00:16:18;7.47;;;3.45;;
43150;SDS011;28755;51.478;5.702;2022-12-28T00:18:48;7.07;;;3.97;;
43150;SDS011;28755;51.478;5.702;2022-12-28T00:21:14;8.38;;;3.50;;
43150;SDS011;28755;51.478;5.702;2022-12-28T00:23:40;9.93;;;3.95;;
43150;SDS011;28755;51.478;5.702;2022-12-28T00:26:06;8.63;;;3.60;;
43150;SDS011;28755;51.478;5.702;2022-12-28T00:28:33;8.57;;;3.58;;
43150;SDS011;28755;51.478;5.702;2022-12-28T00:30:58;8.75;;;3.30;;
43150;SDS011;28755;51.478;5.702;2022-12-28T00:33:24;9.05;;;3.00;;
43150;SDS011;28755;51.478;5.702;2022-12-28T00:35:53;4.22;;;3.10;;
43150;SDS011;28755;51.478;5.702;2022-12-28T00:38:19;8.05;;;4.03;;
43150;SDS011;28755;51.478;5.702;2022-12-28T00:40:45;8.98;;;4.00;;
43150;SDS011;28755;51.478;5.702;2022-12-28T00:43:11;6.53;;;3.25;;
43150;SDS011;28755;51.478;5.702;2022-12-28T00:45:37;8.68;;;3.88;;
43150;SDS011;28755;51.478;5.702;2022-12-28T00:48:02;7.45;;;3.30;;
43150;SDS011;28755;51.478;5.702;2022-12-28T00:50:28;7.65;;;3.13;;
43150;SDS011;28755;51.478;5.702;2022-12-28T00:52:54;7.68;;;3.30;;
43150;SDS011;28755;51.478;5.702;2022-12-28T00:55:20;8.60;;;3.25;;
43150;SDS011;28755;51.478;5.702;2022-12-28T00:57:45;8.93;;;3.50;;
43150;SDS011;28755;51.478;5.702;2022-12-28T01:00:11;5.13;;;3.10;;
43150;SDS011;28755;51.478;5.702;2022-12-28T01:02:37;8.13;;;3.25;;
43150;SDS011;28755;51.478;5.702;2022-12-28T01:05:03;6.22;;;2.75;;
43150;SDS011;28755;51.478;5.702;2022-12-28T01:07:28;6.93;;;2.97;;
43150;SDS011;28755;51.478;5.702;2022-12-28T01:09:54;8.00;;;3.38;;
43150;SDS011;28755;51.478;5.702;2022-12-28T01:12:20;8.52;;;3.40;;
43150;SDS011;28755;51.478;5.702;2022-12-28T01:14:45;7.82;;;3.70;;
43150;SDS011;28755;51.478;5.702;2022-12-28T01:17:11;8.50;;;3.35;;
43150;SDS011;28755;51.478;5.702;2022-12-28T01:19:36;6.90;;;3.25;;
43150;SDS011;28755;51.478;5.702;2022-12-28T01:22:02;6.25;;;3.10;;
43150;SDS011;28755;51.478;5.702;2022-12-28T01:24:27;5.53;;;3.00;;
43150;SDS011;28755;51.478;5.702;2022-12-28T01:26:53;7.18;;;2.95;;
43150;SDS011;28755;51.478;5.702;2022-12-28T01:29:18;7.93;;;2.90;;
43150;SDS011;28755;51.478;5.702;2022-12-28T01:31:44;4.70;;;3.15;;
43150;SDS011;28755;51.478;5.702;2022-12-28T01:34:09;8.77;;;3.17;;
43150;SDS011;28755;51.478;5.702;2022-12-28T01:36:35;7.47;;;3.20;;
43150;SDS011;28755;51.478;5.702;2022-12-28T01:39:02;6.80;;;2.95;;
43150;SDS011;28755;51.478;5.702;2022-12-28T01:41:29;8.15;;;3.33;;
43150;SDS011;28755;51.478;5.702;2022-12-28T01:48:53;7.05;;;3.30;;
43150;SDS011;28755;51.478;5.702;2022-12-28T01:54:35;8.48;;;3.25;;
43150;SDS011;28755;51.478;5.702;2022-12-28T01:57:05;9.30;;;3.20;;
43150;SDS011;28755;51.478;5.702;2022-12-28T01:59:32;7.97;;;2.92;;
43150;SDS011;28755;51.478;5.702;2022-12-28T02:02:03;6.70;;;3.00;;
43150;SDS011;28755;51.478;5.702;2022-12-28T02:04:29;8.40;;;3.40;;
43150;SDS011;28755;51.478;5.702;2022-12-28T02:06:55;7.70;;;2.83;;
43150;SDS011;28755;51.478;5.702;2022-12-28T02:09:22;4.53;;;2.65;;
43150;SDS011;28755;51.478;5.702;2022-12-28T02:11:59;6.72;;;2.90;;
43150;SDS011;28755;51.478;5.702;2022-12-28T02:14:25;6.70;;;3.05;;
43150;SDS011;28755;51.478;5.702;2022-12-28T02:16:52;7.10;;;3.13;;
43150;SDS011;28755;51.478;5.702;2022-12-28T02:19:20;8.10;;;2.88;;
43150;SDS011;28755;51.478;5.702;2022-12-28T02:30:25;7.13;;;3.15;;
43150;SDS011;28755;51.478;5.702;2022-12-28T02:32:59;13.00;;;3.58;;
43150;SDS011;28755;51.478;5.702;2022-12-28T02:35:35;5.93;;;2.72;;
43150;SDS011;28755;51.478;5.702;2022-12-28T02:40:40;4.90;;;2.58;;
43150;SDS011;28755;51.478;5.702;2022-12-28T02:43:18;7.82;;;3.08;;
43150;SDS011;28755;51.478;5.702;2022-12-28T02:45:44;5.32;;;2.60;;
43150;SDS011;28755;51.478;5.702;2022-12-28T02:48:39;7.70;;;3.00;;
43150;SDS011;28755;51.478;5.702;2022-12-28T02:51:46;6.18;;;3.15;;
43150;SDS011;28755;51.478;5.702;2022-12-28T03:00:19;5.97;;;2.78;;
43150;SDS011;28755;51.478;5.702;2022-12-28T03:05:45;9.55;;;3.08;;
43150;SDS011;28755;51.478;5.702;2022-12-28T03:08:59;8.63;;;2.92;;
43150;SDS011;28755;51.478;5.702;2022-12-28T03:11:52;7.38;;;2.67;;
43150;SDS011;28755;51.478;5.702;2022-12-28T03:14:31;4.93;;;3.30;;
43150;SDS011;28755;51.478;5.702;2022-12-28T03:17:03;4.28;;;2.55;;
43150;SDS011;28755;51.478;5.702;2022-12-28T03:19:52;4.70;;;2.75;;
43150;SDS011;28755;51.478;5.702;2022-12-28T03:22:39;4.47;;;3.20;;
43150;SDS011;28755;51.478;5.702;2022-12-28T03:25:26;5.10;;;2.72;;
43150;SDS011;28755;51.478;5.702;2022-12-28T03:28:17;8.38;;;3.55;;
43150;SDS011;28755;51.478;5.702;2022-12-28T03:31:05;5.72;;;3.28;;
43150;SDS011;28755;51.478;5.702;2022-12-28T03:33:37;5.68;;;3.05;;
43150;SDS011;28755;51.478;5.702;2022-12-28T03:38:52;7.53;;;3.40;;
43150;SDS011;28755;51.478;5.702;2022-12-28T03:41:41;7.25;;;3.55;;
43150;SDS011;28755;51.478;5.702;2022-12-28T03:44:08;6.65;;;3.50;;
43150;SDS011;28755;51.478;5.702;2022-12-28T03:47:04;4.78;;;3.53;;
43150;SDS011;28755;51.478;5.702;2022-12-28T03:49:33;7.88;;;3.25;;
43150;SDS011;28755;51.478;5.702;2022-12-28T03:51:59;7.13;;;3.72;;
43150;SDS011;28755;51.478;5.702;2022-12-28T03:54:25;7.55;;;4.00;;
43150;SDS011;28755;51.478;5.702;2022-12-28T03:56:51;6.28;;;3.63;;
43150;SDS011;28755;51.478;5.702;2022-12-28T03:59:17;5.82;;;4.15;;
43150;SDS011;28755;51.478;5.702;2022-12-28T04:01:43;7.40;;;4.00;;
43150;SDS011;28755;51.478;5.702;2022-12-28T04:04:09;10.50;;;4.05;;
43150;SDS011;28755;51.478;5.702;2022-12-28T04:06:35;6.65;;;3.75;;
43150;SDS011;28755;51.478;5.702;2022-12-28T04:09:02;7.57;;;4.30;;
43150;SDS011;28755;51.478;5.702;2022-12-28T04:11:28;7.63;;;4.20;;
43150;SDS011;28755;51.478;5.702;2022-12-28T04:13:54;8.27;;;4.50;;
43150;SDS011;28755;51.478;5.702;2022-12-28T04:16:20;7.35;;;4.47;;
43150;SDS011;28755;51.478;5.702;2022-12-28T04:18:45;7.43;;;4.22;;
43150;SDS011;28755;51.478;5.702;2022-12-28T04:21:11;6.53;;;4.28;;
43150;SDS011;28755;51.478;5.702;2022-12-28T04:23:39;9.63;;;4.40;;
43150;SDS011;28755;51.478;5.702;2022-12-28T04:26:06;7.47;;;4.72;;
43150;SDS011;28755;51.478;5.702;2022-12-28T04:28:33;9.38;;;4.45;;
43150;SDS011;28755;51.478;5.702;2022-12-28T04:30:59;8.32;;;4.40;;
43150;SDS011;28755;51.478;5.702;2022-12-28T04:33:26;8.43;;;3.92;;
43150;SDS011;28755;51.478;5.702;2022-12-28T04:35:52;9.20;;;4.07;;
43150;SDS011;28755;51.478;5.702;2022-12-28T04:38:19;8.50;;;4.35;;
43150;SDS011;28755;51.478;5.702;2022-12-28T04:40:45;9.68;;;4.50;;
43150;SDS011;28755;51.478;5.702;2022-12-28T04:43:10;7.57;;;4.13;;
43150;SDS011;28755;51.478;5.702;2022-12-28T04:45:36;10.90;;;4.00;;
43150;SDS011;28755;51.478;5.702;2022-12-28T04:48:02;9.73;;;3.95;;
43150;SDS011;28755;51.478;5.702;2022-12-28T04:50:28;5.68;;;3.95;;
43150;SDS011;28755;51.478;5.702;2022-12-28T04:52:54;9.05;;;3.85;;
43150;SDS011;28755;51.478;5.702;2022-12-28T04:55:19;5.80;;;3.70;;
43150;SDS011;28755;51.478;5.702;2022-12-28T04:57:45;7.55;;;3.83;;
43150;SDS011;28755;51.478;5.702;2022-12-28T05:00:12;7.20;;;3.88;;
43150;SDS011;28755;51.478;5.702;2022-12-28T05:02:38;8.63;;;3.83;;
43150;SDS011;28755;51.478;5.702;2022-12-28T05:05:04;13.00;;;4.47;;
43150;SDS011;28755;51.478;5.702;2022-12-28T05:07:30;6.07;;;3.90;;
43150;SDS011;28755;51.478;5.702;2022-12-28T05:09:56;7.90;;;4.20;;
43150;SDS011;28755;51.478;5.702;2022-12-28T05:12:21;13.20;;;4.57;;
43150;SDS011;28755;51.478;5.702;2022-12-28T05:14:47;7.60;;;4.22;;
43150;SDS011;28755;51.478;5.702;2022-12-28T05:17:13;9.82;;;4.25;;
43150;SDS011;28755;51.478;5.702;2022-12-28T05:19:38;6.55;;;4.22;;
43150;SDS011;28755;51.478;5.702;2022-12-28T05:22:04;10.93;;;4.38;;
43150;SDS011;28755;51.478;5.702;2022-12-28T05:24:29;7.72;;;3.92;;
43150;SDS011;28755;51.478;5.702;2022-12-28T05:26:55;7.55;;;4.00;;
43150;SDS011;28755;51.478;5.702;2022-12-28T05:29:21;5.55;;;4.03;;
43150;SDS011;28755;51.478;5.702;2022-12-28T05:31:46;6.10;;;4.10;;
43150;SDS011;28755;51.478;5.702;2022-12-28T05:34:12;8.90;;;4.28;;
43150;SDS011;28755;51.478;5.702;2022-12-28T05:36:37;7.13;;;3.95;;
43150;SDS011;28755;51.478;5.702;2022-12-28T05:39:04;9.10;;;4.38;;
43150;SDS011;28755;51.478;5.702;2022-12-28T05:41:30;7.75;;;3.80;;
43150;SDS011;28755;51.478;5.702;2022-12-28T05:43:56;8.48;;;4.15;;
43150;SDS011;28755;51.478;5.702;2022-12-28T05:46:25;7.03;;;3.58;;
43150;SDS011;28755;51.478;5.702;2022-12-28T05:48:55;7.25;;;4.53;;
43150;SDS011;28755;51.478;5.702;2022-12-28T05:51:22;8.05;;;3.78;;
43150;SDS011;28755;51.478;5.702;2022-12-28T05:53:57;7.22;;;3.90;;
43150;SDS011;28755;51.478;5.702;2022-12-28T05:56:25;9.18;;;4.15;;
43150;SDS011;28755;51.478;5.702;2022-12-28T05:58:53;5.97;;;3.60;;
43150;SDS011;28755;51.478;5.702;2022-12-28T06:01:22;6.10;;;3.65;;
43150;SDS011;28755;51.478;5.702;2022-12-28T06:03:53;5.65;;;3.88;;
43150;SDS011;28755;51.478;5.702;2022-12-28T06:06:20;7.47;;;4.15;;
43150;SDS011;28755;51.478;5.702;2022-12-28T06:08:47;6.53;;;4.10;;
43150;SDS011;28755;51.478;5.702;2022-12-28T06:11:14;6.88;;;3.95;;
43150;SDS011;28755;51.478;5.702;2022-12-28T06:13:42;7.38;;;4.07;;
43150;SDS011;28755;51.478;5.702;2022-12-28T06:16:11;7.95;;;4.38;;
43150;SDS011;28755;51.478;5.702;2022-12-28T06:18:39;6.20;;;4.15;;
43150;SDS011;28755;51.478;5.702;2022-12-28T06:21:06;6.68;;;4.22;;
43150;SDS011;28755;51.478;5.702;2022-12-28T06:23:41;7.35;;;4.13;;
43150;SDS011;28755;51.478;5.702;2022-12-28T06:26:09;5.82;;;4.15;;
43150;SDS011;28755;51.478;5.702;2022-12-28T06:28:37;7.95;;;4.57;;
43150;SDS011;28755;51.478;5.702;2022-12-28T06:31:06;9.93;;;4.53;;
43150;SDS011;28755;51.478;5.702;2022-12-28T06:36:12;11.15;;;4.55;;
43150;SDS011;28755;51.478;5.702;2022-12-28T06:38:48;8.55;;;4.43;;
43150;SDS011;28755;51.478;5.702;2022-12-28T06:41:15;5.68;;;4.00;;
43150;SDS011;28755;51.478;5.702;2022-12-28T06:43:42;6.75;;;4.22;;
43150;SDS011;28755;51.478;5.702;2022-12-28T06:46:09;11.65;;;4.88;;
43150;SDS011;28755;51.478;5.702;2022-12-28T06:48:36;5.55;;;4.22;;
43150;SDS011;28755;51.478;5.702;2022-12-28T06:51:03;5.40;;;4.10;;
43150;SDS011;28755;51.478;5.702;2022-12-28T06:53:31;8.48;;;4.32;;
43150;SDS011;28755;51.478;5.702;2022-12-28T06:56:03;9.93;;;4.20;;
43150;SDS011;28755;51.478;5.702;2022-12-28T06:58:30;7.60;;;4.40;;
43150;SDS011;28755;51.478;5.702;2022-12-28T07:00:56;6.18;;;3.50;;
43150;SDS011;28755;51.478;5.702;2022-12-28T07:03:29;7.13;;;3.80;;
43150;SDS011;28755;51.478;5.702;2022-12-28T07:05:58;8.98;;;4.10;;
43150;SDS011;28755;51.478;5.702;2022-12-28T07:08:24;5.88;;;3.90;;
43150;SDS011;28755;51.478;5.702;2022-12-28T07:10:50;6.68;;;3.80;;
43150;SDS011;28755;51.478;5.702;2022-12-28T07:13:15;5.72;;;3.50;;
43150;SDS011;28755;51.478;5.702;2022-12-28T07:15:41;7.03;;;3.40;;
43150;SDS011;28755;51.478;5.702;2022-12-28T07:18:06;6.32;;;3.00;;
43150;SDS011;28755;51.478;5.702;2022-12-28T07:20:32;5.28;;;2.83;;
43150;SDS011;28755;51.478;5.702;2022-12-28T07:22:57;5.68;;;3.30;;
43150;SDS011;28755;51.478;5.702;2022-12-28T07:25:23;4.47;;;2.92;;
43150;SDS011;28755;51.478;5.702;2022-12-28T07:27:48;5.20;;;2.55;;
43150;SDS011;28755;51.478;5.702;2022-12-28T07:30:14;5.85;;;3.03;;
43150;SDS011;28755;51.478;5.702;2022-12-28T07:32:40;5.00;;;3.13;;
43150;SDS011;28755;51.478;5.702;2022-12-28T07:35:05;5.20;;;2.40;;
43150;SDS011;28755;51.478;5.702;2022-12-28T07:37:31;5.78;;;2.80;;
43150;SDS011;28755;51.478;5.702;2022-12-28T07:39:57;3.67;;;2.38;;
43150;SDS011;28755;51.478;5.702;2022-12-28T07:42:22;3.97;;;2.80;;
43150;SDS011;28755;51.478;5.702;2022-12-28T07:44:48;6.10;;;2.85;;
43150;SDS011;28755;51.478;5.702;2022-12-28T07:47:13;5.82;;;3.63;;
43150;SDS011;28755;51.478;5.702;2022-12-28T07:49:39;4.35;;;3.42;;
43150;SDS011;28755;51.478;5.702;2022-12-28T07:52:05;4.03;;;3.00;;
43150;SDS011;28755;51.478;5.702;2022-12-28T07:54:31;3.47;;;3.15;;
43150;SDS011;28755;51.478;5.702;2022-12-28T07:56:57;3.45;;;2.95;;
43150;SDS011;28755;51.478;5.702;2022-12-28T07:59:22;6.13;;;3.10;;
43150;SDS011;28755;51.478;5.702;2022-12-28T08:01:48;5.32;;;2.50;;
43150;SDS011;28755;51.478;5.702;2022-12-28T08:04:15;3.10;;;2.70;;
43150;SDS011;28755;51.478;5.702;2022-12-28T08:06:41;8.75;;;3.00;;
43150;SDS011;28755;51.478;5.702;2022-12-28T08:09:09;6.80;;;3.65;;
43150;SDS011;28755;51.478;5.702;2022-12-28T08:11:37;6.32;;;2.92;;
43150;SDS011;28755;51.478;5.702;2022-12-28T08:14:08;4.07;;;2.70;;
43150;SDS011;28755;51.478;5.702;2022-12-28T08:16:38;4.47;;;2.90;;
43150;SDS011;28755;51.478;5.702;2022-12-28T08:19:05;4.80;;;3.10;;
43150;SDS011;28755;51.478;5.702;2022-12-28T08:21:33;5.85;;;3.20;;
43150;SDS011;28755;51.478;5.702;2022-12-28T08:24:03;4.72;;;2.80;;
43150;SDS011;28755;51.478;5.702;2022-12-28T08:26:31;7.15;;;3.17;;
43150;SDS011;28755;51.478;5.702;2022-12-28T08:28:59;6.78;;;3.33;;
43150;SDS011;28755;51.478;5.702;2022-12-28T08:31:30;4.97;;;3.28;;
43150;SDS011;28755;51.478;5.702;2022-12-28T08:33:58;5.20;;;3.15;;
43150;SDS011;28755;51.478;5.702;2022-12-28T08:36:25;4.72;;;3.47;;
43150;SDS011;28755;51.478;5.702;2022-12-28T08:38:51;4.32;;;3.10;;
43150;SDS011;28755;51.478;5.702;2022-12-28T08:41:18;7.40;;;3.70;;
43150;SDS011;28755;51.478;5.702;2022-12-28T08:43:47;7.30;;;3.70;;
43150;SDS011;28755;51.478;5.702;2022-12-28T08:46:14;9.07;;;4.22;;
43150;SDS011;28755;51.478;5.702;2022-12-28T08:48:41;7.30;;;3.78;;
43150;SDS011;28755;51.478;5.702;2022-12-28T08:51:09;5.15;;;3.38;;
43150;SDS011;28755;51.478;5.702;2022-12-28T08:53:36;5.57;;;3.30;;
43150;SDS011;28755;51.478;5.702;2022-12-28T08:56:07;4.30;;;3.35;;
43150;SDS011;28755;51.478;5.702;2022-12-28T08:58:34;6.40;;;3.10;;
43150;SDS011;28755;51.478;5.702;2022-12-28T09:01:16;6.65;;;2.83;;
43150;SDS011;28755;51.478;5.702;2022-12-28T09:03:48;4.93;;;2.55;;
43150;SDS011;28755;51.478;5.702;2022-12-28T09:06:15;4.32;;;3.15;;
43150;SDS011;28755;51.478;5.702;2022-12-28T09:08:42;4.13;;;2.80;;
43150;SDS011;28755;51.478;5.702;2022-12-28T09:11:09;5.38;;;3.30;;
43150;SDS011;28755;51.478;5.702;2022-12-28T09:13:37;4.47;;;2.85;;
43150;SDS011;28755;51.478;5.702;2022-12-28T09:16:04;4.28;;;2.50;;
43150;SDS011;28755;51.478;5.702;2022-12-28T09:18:32;5.38;;;3.20;;
43150;SDS011;28755;51.478;5.702;2022-12-28T09:23:31;4.97;;;2.72;;
43150;SDS011;28755;51.478;5.702;2022-12-28T09:26:02;5.50;;;2.80;;
43150;SDS011;28755;51.478;5.702;2022-12-28T09:28:34;6.00;;;2.45;;
43150;SDS011;28755;51.478;5.702;2022-12-28T09:31:03;5.22;;;2.60;;
43150;SDS011;28755;51.478;5.702;2022-12-28T09:33:31;4.90;;;2.55;;
43150;SDS011;28755;51.478;5.702;2022-12-28T09:36:15;5.30;;;2.70;;
43150;SDS011;28755;51.478;5.702;2022-12-28T09:38:41;4.43;;;2.80;;
43150;SDS011;28755;51.478;5.702;2022-12-28T09:41:11;5.97;;;2.60;;
43150;SDS011;28755;51.478;5.702;2022-12-28T09:43:40;5.97;;;2.53;;
43150;SDS011;28755;51.478;5.702;2022-12-28T09:46:07;6.05;;;2.95;;
43150;SDS011;28755;51.478;5.702;2022-12-28T09:48:34;5.65;;;3.05;;
43150;SDS011;28755;51.478;5.702;2022-12-28T09:51:00;4.53;;;2.90;;
43150;SDS011;28755;51.478;5.702;2022-12-28T09:58:43;3.45;;;2.67;;
43150;SDS011;28755;51.478;5.702;2022-12-28T10:01:10;6.60;;;2.83;;
43150;SDS011;28755;51.478;5.702;2022-12-28T10:03:39;5.77;;;2.77;;
43150;SDS011;28755;51.478;5.702;2022-12-28T10:06:16;3.88;;;2.70;;
43150;SDS011;28755;51.478;5.702;2022-12-28T10:08:48;3.88;;;2.80;;
43150;SDS011;28755;51.478;5.702;2022-12-28T10:11:17;4.30;;;2.33;;
43150;SDS011;28755;51.478;5.702;2022-12-28T10:13:45;5.97;;;3.03;;
43150;SDS011;28755;51.478;5.702;2022-12-28T10:16:18;7.60;;;3.10;;
43150;SDS011;28755;51.478;5.702;2022-12-28T10:18:45;8.10;;;3.15;;
43150;SDS011;28755;51.478;5.702;2022-12-28T10:21:11;4.80;;;2.75;;
43150;SDS011;28755;51.478;5.702;2022-12-28T10:23:39;7.28;;;3.60;;
43150;SDS011;28755;51.478;5.702;2022-12-28T10:26:08;8.63;;;3.10;;
43150;SDS011;28755;51.478;5.702;2022-12-28T10:28:43;4.90;;;3.17;;
43150;SDS011;28755;51.478;5.702;2022-12-28T10:31:13;6.10;;;2.78;;
43150;SDS011;28755;51.478;5.702;2022-12-28T10:33:41;4.10;;;2.63;;
43150;SDS011;28755;51.478;5.702;2022-12-28T10:36:15;4.70;;;3.20;;
43150;SDS011;28755;51.478;5.702;2022-12-28T10:38:42;5.72;;;3.33;;
43150;SDS011;28755;51.478;5.702;2022-12-28T10:41:14;7.75;;;3.03;;
43150;SDS011;28755;51.478;5.702;2022-12-28T10:43:46;7.22;;;3.33;;
43150;SDS011;28755;51.478;5.702;2022-12-28T10:46:20;4.38;;;3.10;;
43150;SDS011;28755;51.478;5.702;2022-12-28T10:48:54;13.38;;;3.10;;
43150;SDS011;28755;51.478;5.702;2022-12-28T10:51:23;6.78;;;3.58;;
43150;SDS011;28755;51.478;5.702;2022-12-28T10:53:50;5.25;;;3.25;;
43150;SDS011;28755;51.478;5.702;2022-12-28T10:56:26;7.35;;;3.65;;
43150;SDS011;28755;51.478;5.702;2022-12-28T11:01:37;6.85;;;2.95;;
43150;SDS011;28755;51.478;5.702;2022-12-28T11:04:05;9.27;;;3.35;;
43150;SDS011;28755;51.478;5.702;2022-12-28T11:06:35;5.60;;;3.00;;
43150;SDS011;28755;51.478;5.702;2022-12-28T11:09:25;4.75;;;2.80;;
43150;SDS011;28755;51.478;5.702;2022-12-28T11:11:53;5.93;;;3.00;;
43150;SDS011;28755;51.478;5.702;2022-12-28T11:14:29;6.97;;;2.80;;
43150;SDS011;28755;51.478;5.702;2022-12-28T11:17:03;4.45;;;3.38;;
43150;SDS011;28755;51.478;5.702;2022-12-28T11:19:48;4.63;;;3.22;;
43150;SDS011;28755;51.478;5.702;2022-12-28T11:22:25;5.80;;;2.63;;
43150;SDS011;28755;51.478;5.702;2022-12-28T11:24:53;7.72;;;3.00;;
43150;SDS011;28755;51.478;5.702;2022-12-28T11:27:20;7.90;;;3.05;;
43150;SDS011;28755;51.478;5.702;2022-12-28T11:29:49;4.45;;;2.80;;
43150;SDS011;28755;51.478;5.702;2022-12-28T11:32:17;5.20;;;2.83;;
43150;SDS011;28755;51.478;5.702;2022-12-28T11:34:48;5.00;;;2.60;;
43150;SDS011;28755;51.478;5.702;2022-12-28T11:37:15;5.53;;;2.45;;
43150;SDS011;28755;51.478;5.702;2022-12-28T11:39:46;6.97;;;2.78;;
43150;SDS011;28755;51.478;5.702;2022-12-28T11:44:57;6.55;;;2.85;;
43150;SDS011;28755;51.478;5.702;2022-12-28T11:47:25;8.98;;;2.63;;
43150;SDS011;28755;51.478;5.702;2022-12-28T11:50:38;6.53;;;2.15;;
43150;SDS011;28755;51.478;5.702;2022-12-28T11:52:58;10.43;;;2.50;;
43150;SDS011;28755;51.478;5.702;2022-12-28T11:57:50;7.70;;;2.20;;
43150;SDS011;28755;51.478;5.702;2022-12-28T12:02:46;7.72;;;2.40;;
43150;SDS011;28755;51.478;5.702;2022-12-28T12:08:00;4.97;;;2.00;;
43150;SDS011;28755;51.478;5.702;2022-12-28T12:10:35;7.10;;;2.00;;
43150;SDS011;28755;51.478;5.702;2022-12-28T12:14:03;6.15;;;2.20;;
43150;SDS011;28755;51.478;5.702;2022-12-28T12:15:59;7.50;;;2.10;;
43150;SDS011;28755;51.478;5.702;2022-12-28T12:18:32;4.90;;;2.20;;
43150;SDS011;28755;51.478;5.702;2022-12-28T12:21:08;8.07;;;2.00;;
43150;SDS011;28755;51.478;5.702;2022-12-28T12:23:49;6.13;;;1.90;;
43150;SDS011;28755;51.478;5.702;2022-12-28T12:26:37;6.63;;;1.73;;
43150;SDS011;28755;51.478;5.702;2022-12-28T12:31:42;5.28;;;2.00;;
43150;SDS011;28755;51.478;5.702;2022-12-28T12:57:08;6.38;;;1.73;;
43150;SDS011;28755;51.478;5.702;2022-12-28T13:00:03;4.78;;;1.80;;
43150;SDS011;28755;51.478;5.702;2022-12-28T13:05:17;7.30;;;1.85;;
43150;SDS011;28755;51.478;5.702;2022-12-28T13:07:45;8.50;;;1.90;;
43150;SDS011;28755;51.478;5.702;2022-12-28T13:10:13;6.55;;;2.45;;
43150;SDS011;28755;51.478;5.702;2022-12-28T13:12:42;5.57;;;1.85;;
43150;SDS011;28755;51.478;5.702;2022-12-28T13:15:13;7.78;;;1.73;;
43150;SDS011;28755;51.478;5.702;2022-12-28T13:17:56;4.43;;;1.63;;
43150;SDS011;28755;51.478;5.702;2022-12-28T13:20:25;5.30;;;1.67;;
43150;SDS011;28755;51.478;5.702;2022-12-28T13:22:51;7.47;;;1.85;;
43150;SDS011;28755;51.478;5.702;2022-12-28T13:25:25;6.78;;;1.88;;
43150;SDS011;28755;51.478;5.702;2022-12-28T13:27:53;10.25;;;2.30;;
43150;SDS011;28755;51.478;5.702;2022-12-28T14:11:29;6.20;;;1.70;;
43150;SDS011;28755;51.478;5.702;2022-12-28T14:13:55;5.03;;;2.35;;
43150;SDS011;28755;51.478;5.702;2022-12-28T14:16:21;7.60;;;2.10;;
43150;SDS011;28755;51.478;5.702;2022-12-28T14:18:48;8.18;;;1.77;;
43150;SDS011;28755;51.478;5.702;2022-12-28T14:21:15;6.57;;;1.98;;
43150;SDS011;28755;51.478;5.702;2022-12-28T14:23:40;6.80;;;1.88;;
43150;SDS011;28755;51.478;5.702;2022-12-28T14:26:25;7.70;;;1.92;;
43150;SDS011;28755;51.478;5.702;2022-12-28T14:28:51;7.57;;;1.65;;
43150;SDS011;28755;51.478;5.702;2022-12-28T14:31:26;11.70;;;1.88;;
43150;SDS011;28755;51.478;5.702;2022-12-28T14:33:55;5.70;;;1.73;;
43150;SDS011;28755;51.478;5.702;2022-12-28T14:36:26;7.00;;;1.70;;
43150;SDS011;28755;51.478;5.702;2022-12-28T14:41:50;5.55;;;2.28;;
43150;SDS011;28755;51.478;5.702;2022-12-28T14:44:20;5.97;;;2.20;;
43150;SDS011;28755;51.478;5.702;2022-12-28T14:46:53;7.65;;;3.22;;
43150;SDS011;28755;51.478;5.702;2022-12-28T14:54:31;12.30;;;5.25;;
43150;SDS011;28755;51.478;5.702;2022-12-28T14:57:17;12.32;;;4.18;;
43150;SDS011;28755;51.478;5.702;2022-12-28T15:00:03;6.95;;;4.72;;
43150;SDS011;28755;51.478;5.702;2022-12-28T15:05:02;6.50;;;3.08;;
43150;SDS011;28755;51.478;5.702;2022-12-28T15:07:48;8.23;;;3.40;;
43150;SDS011;28755;51.478;5.702;2022-12-28T15:10:14;5.05;;;2.15;;
43150;SDS011;28755;51.478;5.702;2022-12-28T15:12:39;9.75;;;4.30;;
43150;SDS011;28755;51.478;5.702;2022-12-28T15:15:05;15.35;;;6.30;;
43150;SDS011;28755;51.478;5.702;2022-12-28T15:17:32;3.83;;;1.77;;
43150;SDS011;28755;51.478;5.702;2022-12-28T15:19:58;4.70;;;2.20;;
43150;SDS011;28755;51.478;5.702;2022-12-28T15:22:23;11.07;;;2.03;;
43150;SDS011;28755;51.478;5.702;2022-12-28T15:24:49;7.57;;;2.15;;
43150;SDS011;28755;51.478;5.702;2022-12-28T15:27:14;6.78;;;2.15;;
43150;SDS011;28755;51.478;5.702;2022-12-28T15:29:40;6.05;;;2.10;;
43150;SDS011;28755;51.478;5.702;2022-12-28T15:32:05;7.00;;;2.00;;
43150;SDS011;28755;51.478;5.702;2022-12-28T15:34:31;9.23;;;2.13;;
43150;SDS011;28755;51.478;5.702;2022-12-28T15:36:57;5.57;;;1.90;;
43150;SDS011;28755;51.478;5.702;2022-12-28T15:39:22;6.63;;;1.80;;
43150;SDS011;28755;51.478;5.702;2022-12-28T15:41:49;8.52;;;2.20;;
43150;SDS011;28755;51.478;5.702;2022-12-28T15:44:18;6.43;;;2.30;;
43150;SDS011;28755;51.478;5.702;2022-12-28T15:46:47;5.18;;;2.00;;
43150;SDS011;28755;51.478;5.702;2022-12-28T15:49:16;11.00;;;2.13;;
43150;SDS011;28755;51.478;5.702;2022-12-28T15:51:43;6.95;;;1.63;;
43150;SDS011;28755;51.478;5.702;2022-12-28T15:54:09;8.07;;;2.20;;
43150;SDS011;28755;51.478;5.702;2022-12-28T15:56:36;5.50;;;1.58;;
43150;SDS011;28755;51.478;5.702;2022-12-28T15:59:04;4.75;;;1.80;;
43150;SDS011;28755;51.478;5.702;2022-12-28T16:01:31;5.53;;;1.73;;
43150;SDS011;28755;51.478;5.702;2022-12-28T16:03:58;4.85;;;1.58;;
43150;SDS011;28755;51.478;5.702;2022-12-28T16:06:26;5.10;;;1.95;;
43150;SDS011;28755;51.478;5.702;2022-12-28T16:08:54;4.65;;;1.52;;
43150;SDS011;28755;51.478;5.702;2022-12-28T16:11:21;5.20;;;2.15;;
43150;SDS011;28755;51.478;5.702;2022-12-28T16:13:56;3.97;;;1.77;;
43150;SDS011;28755;51.478;5.702;2022-12-28T16:16:24;8.90;;;2.28;;
43150;SDS011;28755;51.478;5.702;2022-12-28T16:18:52;6.03;;;2.50;;
43150;SDS011;28755;51.478;5.702;2022-12-28T16:21:21;4.72;;;2.10;;
43150;SDS011;28755;51.478;5.702;2022-12-28T16:23:47;5.97;;;2.40;;
43150;SDS011;28755;51.478;5.702;2022-12-28T16:26:13;4.78;;;1.80;;
43150;SDS011;28755;51.478;5.702;2022-12-28T16:28:39;4.32;;;1.70;;
43150;SDS011;28755;51.478;5.702;2022-12-28T16:31:06;5.82;;;2.22;;
43150;SDS011;28755;51.478;5.702;2022-12-28T16:33:32;4.03;;;2.17;;
43150;SDS011;28755;51.478;5.702;2022-12-28T16:35:57;5.57;;;2.03;;
43150;SDS011;28755;51.478;5.702;2022-12-28T16:38:23;7.90;;;3.30;;
43150;SDS011;28755;51.478;5.702;2022-12-28T16:40:53;10.00;;;2.80;;
43150;SDS011;28755;51.478;5.702;2022-12-28T16:43:20;9.75;;;2.22;;
43150;SDS011;28755;51.478;5.702;2022-12-28T16:45:47;5.47;;;2.10;;
43150;SDS011;28755;51.478;5.702;2022-12-28T16:48:13;6.70;;;2.20;;
43150;SDS011;28755;51.478;5.702;2022-12-28T16:50:40;7.28;;;2.08;;
43150;SDS011;28755;51.478;5.702;2022-12-28T16:53:06;4.50;;;1.98;;
43150;SDS011;28755;51.478;5.702;2022-12-28T16:55:37;4.72;;;2.03;;
43150;SDS011;28755;51.478;5.702;2022-12-28T16:58:04;6.07;;;2.30;;
43150;SDS011;28755;51.478;5.702;2022-12-28T17:00:30;8.68;;;2.42;;
43150;SDS011;28755;51.478;5.702;2022-12-28T17:02:56;6.40;;;2.17;;
43150;SDS011;28755;51.478;5.702;2022-12-28T17:05:21;5.55;;;2.10;;
43150;SDS011;28755;51.478;5.702;2022-12-28T17:07:47;9.88;;;2.67;;
43150;SDS011;28755;51.478;5.702;2022-12-28T17:10:12;8.48;;;2.33;;
43150;SDS011;28755;51.478;5.702;2022-12-28T17:12:38;7.53;;;2.20;;
43150;SDS011;28755;51.478;5.702;2022-12-28T17:15:04;6.80;;;1.90;;